Time;durP1;ratioP1;P1;durP2;ratioP2;P2;SDS_P1;SDS_P2;PMS_P1;PMS_P2;Temp;Humidity;BMP_temperature;BMP_pressure;BME280_temperature;BME280_humidity;BME280_pressure;Samples;Min_cycle;Max_cycle;Signal;HPM_P1;HPM_P2
2021/12/06 00:00:57;;;;;;;;;;;5.20;95.00;;;;;;5087796;28;19920;-70
2021/12/06 00:03:27;;;;;;;;;;;5.10;94.90;;;;;;5103771;28;19986;-71
2021/12/06 00:05:53;;;;;;;;;;;5.10;95.00;;;;;;5089474;28;19940;-71
2021/12/06 00:08:18;;;;;;;;;;;5.10;95.00;;;;;;5093162;28;19966;-71
2021/12/06 00:10:44;;;;;;;;;;;5.10;95.00;;;;;;5091680;28;20025;-71
2021/12/06 00:13:11;;;;;;;;;;;5.10;94.90;;;;;;5103188;28;19967;-71
2021/12/06 00:15:37;;;;;;;;;;;5.10;95.00;;;;;;5094418;28;19922;-71
2021/12/06 00:18:02;;;;;;;;;;;5.10;95.00;;;;;;5102063;28;19915;-71
2021/12/06 00:20:28;;;;;;;;;;;5.10;95.00;;;;;;5094758;28;19912;-71
2021/12/06 00:22:54;;;;;;;;;;;5.00;95.00;;;;;;5099076;28;19920;-70
2021/12/06 00:25:21;;;;;;;;;;;5.00;95.00;;;;;;5091760;28;19974;-70
2021/12/06 00:27:47;;;;;;;;;;;5.00;95.00;;;;;;5092364;28;20011;-70
2021/12/06 00:30:15;;;;;;;;;;;5.00;95.00;;;;;;5103086;28;20007;-70
2021/12/06 00:32:41;;;;;;;;;;;5.00;95.10;;;;;;5102741;28;19944;-71
2021/12/06 00:35:12;;;;;;;;;;;5.00;95.00;;;;;;5099099;28;19943;-71
2021/12/06 00:37:44;;;;;;;;;;;5.00;95.00;;;;;;5100358;28;20367;-71
2021/12/06 00:40:11;;;;;;;;;;;5.00;94.90;;;;;;5107888;28;19915;-71
2021/12/06 00:42:36;;;;;;;;;;;5.00;94.80;;;;;;5093602;28;20352;-70
2021/12/06 00:45:05;;;;;;;;;;;5.00;94.80;;;;;;5095385;28;19951;-71
2021/12/06 00:47:30;;;;;;;;;;;5.00;94.80;;;;;;5092145;28;20310;-71
2021/12/06 00:49:56;;;;;;;;;;;5.00;94.80;;;;;;5093655;28;20003;-70
2021/12/06 00:52:22;;;;;;;;;;;4.90;94.70;;;;;;5095105;28;19912;-71
2021/12/06 00:54:48;;;;;;;;;;;4.90;94.70;;;;;;5094552;28;19946;-70
2021/12/06 00:57:14;;;;;;;;;;;4.90;94.70;;;;;;5089072;28;20323;-70
2021/12/06 00:59:40;;;;;;;;;;;4.90;94.60;;;;;;5096820;28;19991;-71
2021/12/06 01:02:06;;;;;;;;;;;4.90;94.60;;;;;;5091243;28;19942;-70
2021/12/06 01:04:33;;;;;;;;;;;4.90;94.60;;;;;;5105748;28;19923;-71
2021/12/06 01:06:59;;;;;;;;;;;4.80;94.60;;;;;;5095706;28;19927;-71
2021/12/06 01:09:24;;;;;;;;;;;4.80;94.60;;;;;;5106552;28;19920;-71
2021/12/06 01:11:50;;;;;;;;;;;4.80;94.60;;;;;;5092619;28;19908;-71
2021/12/06 01:14:16;;;;;;;;;;;4.80;94.50;;;;;;5092959;28;19919;-70
2021/12/06 01:16:42;;;;;;;;;;;4.80;94.50;;;;;;5097247;28;20367;-71
2021/12/06 01:19:07;;;;;;;;;;;4.80;94.50;;;;;;5090252;28;19912;-71
2021/12/06 01:21:49;;;;;;;;;;;;;;;;;;;;;
2021/12/06 01:24:09;;;;;;;;;;;4.70;94.40;;;;;;5092190;28;19926;-70
2021/12/06 01:31:59;;;;;;;;;;;4.70;94.40;;;;;;5093746;28;19915;-71
2021/12/06 01:39:54;;;;;;;;;;;4.60;94.30;;;;;;5097155;28;19919;-70
2021/12/06 01:42:19;;;;;;;;;;;4.60;94.20;;;;;;5101036;28;19917;-71
2021/12/06 01:44:47;;;;;;;;;;;4.60;94.20;;;;;;5096304;28;19916;-71
2021/12/06 01:47:15;;;;;;;;;;;4.60;94.20;;;;;;5094409;28;20361;-70
2021/12/06 01:49:43;;;;;;;;;;;4.60;94.20;;;;;;5093862;28;19912;-71
2021/12/06 01:52:28;;;;;;;;;;;4.50;94.20;;;;;;5093795;28;19912;-71
2021/12/06 01:54:55;;;;;;;;;;;4.60;94.20;;;;;;5096963;28;19908;-70
2021/12/06 01:57:24;;;;;;;;;;;4.50;94.10;;;;;;5097335;28;19916;-71
2021/12/06 01:59:50;;;;;;;;;;;4.50;94.10;;;;;;5092263;28;20359;-71
2021/12/06 02:02:16;;;;;;;;;;;4.50;94.10;;;;;;5092166;28;20007;-71
2021/12/06 02:04:42;;;;;;;;;;;4.50;94.10;;;;;;5105080;28;19995;-71
2021/12/06 02:07:12;;;;;;;;;;;4.50;94.10;;;;;;5108150;27;19916;-71
2021/12/06 02:09:38;;;;;;;;;;;4.50;94.10;;;;;;5094934;28;19996;-70
2021/12/06 02:12:04;;;;;;;;;;;4.50;94.10;;;;;;5092410;27;20589;-71
2021/12/06 02:19:32;;;;;;;;;;;4.40;94.00;;;;;;5092802;28;19945;-70
2021/12/06 02:22:00;;;;;;;;;;;4.40;94.00;;;;;;5093437;28;19957;-71
2021/12/06 02:24:26;;;;;;;;;;;4.40;94.00;;;;;;5093473;28;19915;-70
2021/12/06 02:26:53;;;;;;;;;;;4.40;94.00;;;;;;5093045;28;20327;-70
2021/12/06 02:29:19;;;;;;;;;;;4.40;93.90;;;;;;5091130;28;20388;-71
2021/12/06 02:31:44;;;;;;;;;;;4.40;93.90;;;;;;5094955;28;19916;-70
2021/12/06 02:34:10;;;;;;;;;;;4.40;93.90;;;;;;5092558;28;20536;-70
2021/12/06 02:36:35;;;;;;;;;;;4.30;93.90;;;;;;5091090;28;19915;-71
2021/12/06 02:39:02;;;;;;;;;;;4.30;93.90;;;;;;5082807;28;19907;-70
2021/12/06 02:41:28;;;;;;;;;;;4.30;93.90;;;;;;5092144;28;19977;-70
2021/12/06 02:43:53;;;;;;;;;;;4.30;93.90;;;;;;5091779;28;20356;-70
2021/12/06 02:46:19;;;;;;;;;;;4.30;93.80;;;;;;5092171;28;19928;-70
2021/12/06 02:48:45;;;;;;;;;;;4.30;93.80;;;;;;5092034;28;19920;-71
2021/12/06 02:51:11;;;;;;;;;;;4.30;93.90;;;;;;5093575;28;19912;-70
2021/12/06 02:53:37;;;;;;;;;;;4.30;93.80;;;;;;5089450;28;19977;-71
2021/12/06 02:56:06;;;;;;;;;;;4.20;93.80;;;;;;5093113;28;19913;-70
2021/12/06 03:01:22;;;;;;;;;;;4.20;93.80;;;;;;5083988;28;19999;-70
2021/12/06 03:03:48;;;;;;;;;;;4.20;93.70;;;;;;5091641;28;20012;-70
2021/12/06 03:06:14;;;;;;;;;;;4.20;93.70;;;;;;5077142;28;19971;-70
2021/12/06 03:08:42;;;;;;;;;;;4.20;93.70;;;;;;5091452;28;19942;-70
2021/12/06 03:11:10;;;;;;;;;;;4.20;93.70;;;;;;5108630;28;20357;-71
2021/12/06 03:13:35;;;;;;;;;;;4.20;93.70;;;;;;5089569;28;19912;-70
2021/12/06 03:16:02;;;;;;;;;;;4.20;93.60;;;;;;5076086;28;19920;-70
2021/12/06 03:18:27;;;;;;;;;;;4.10;93.50;;;;;;5091020;28;19930;-71
2021/12/06 03:20:53;;;;;;;;;;;4.10;93.50;;;;;;5073042;28;20357;-70
2021/12/06 03:23:18;;;;;;;;;;;4.10;93.50;;;;;;5093076;28;19987;-70
2021/12/06 03:25:44;;;;;;;;;;;4.10;93.50;;;;;;5089578;28;19952;-71
2021/12/06 03:28:10;;;;;;;;;;;4.10;93.50;;;;;;5093775;28;19912;-70
2021/12/06 03:30:35;;;;;;;;;;;4.10;93.50;;;;;;5079195;28;19920;-70
2021/12/06 03:33:01;;;;;;;;;;;4.10;93.50;;;;;;5091385;28;19909;-70
2021/12/06 03:35:26;;;;;;;;;;;4.00;93.40;;;;;;5090561;28;19919;-70
2021/12/06 03:37:52;;;;;;;;;;;4.00;93.40;;;;;;5093453;28;19999;-70
2021/12/06 03:40:17;;;;;;;;;;;4.00;93.40;;;;;;5090750;28;19938;-70
2021/12/06 03:42:43;;;;;;;;;;;4.00;93.40;;;;;;5096546;28;19927;-70
2021/12/06 03:45:09;;;;;;;;;;;4.00;93.40;;;;;;5100800;28;19923;-70
2021/12/06 03:47:35;;;;;;;;;;;4.00;93.40;;;;;;5098172;28;19950;-70
2021/12/06 03:50:02;;;;;;;;;;;4.00;93.40;;;;;;5097686;28;19963;-70
2021/12/06 03:52:28;;;;;;;;;;;4.00;93.40;;;;;;5090738;28;19961;-70
2021/12/06 03:54:54;;;;;;;;;;;3.90;93.30;;;;;;5088273;28;19916;-70
2021/12/06 03:57:20;;;;;;;;;;;3.90;93.30;;;;;;5092371;28;19994;-70
2021/12/06 03:59:46;;;;;;;;;;;3.90;93.30;;;;;;5090365;28;19912;-70
2021/12/06 04:02:12;;;;;;;;;;;3.90;93.30;;;;;;5098310;28;19974;-70
2021/12/06 04:04:37;;;;;;;;;;;3.90;93.30;;;;;;5088960;28;20548;-70
2021/12/06 04:07:03;;;;;;;;;;;3.90;93.30;;;;;;5086552;28;19980;-70
2021/12/06 04:09:29;;;;;;;;;;;3.90;93.30;;;;;;5087958;28;20376;-70
2021/12/06 04:11:55;;;;;;;;;;;3.90;93.30;;;;;;5100656;28;19908;-70
2021/12/06 04:14:21;;;;;;;;;;;3.90;93.30;;;;;;5092356;28;20361;-70
2021/12/06 04:16:46;;;;;;;;;;;3.90;93.30;;;;;;5098478;28;19914;-71
2021/12/06 04:19:12;;;;;;;;;;;3.90;93.30;;;;;;5091493;28;19973;-70
2021/12/06 04:21:38;;;;;;;;;;;3.90;93.30;;;;;;5094158;28;20399;-70
2021/12/06 04:24:04;;;;;;;;;;;3.80;93.30;;;;;;5088832;28;19920;-70
2021/12/06 04:26:30;;;;;;;;;;;3.90;93.30;;;;;;5079576;28;20416;-70
2021/12/06 04:29:00;;;;;;;;;;;3.80;93.30;;;;;;5087365;28;19909;-70
2021/12/06 04:31:27;;;;;;;;;;;3.90;93.30;;;;;;5082711;28;19918;-70
2021/12/06 04:33:52;;;;;;;;;;;3.80;93.30;;;;;;5086954;28;20310;-70
2021/12/06 04:36:18;;;;;;;;;;;3.90;93.30;;;;;;5089264;28;19909;-70
2021/12/06 04:38:44;;;;;;;;;;;3.80;93.30;;;;;;5092068;28;20376;-70
2021/12/06 04:41:09;;;;;;;;;;;3.80;93.40;;;;;;5100147;28;19912;-70
2021/12/06 04:43:36;;;;;;;;;;;3.80;93.40;;;;;;5088008;28;19916;-70
2021/12/06 04:46:02;;;;;;;;;;;3.80;93.40;;;;;;5077182;28;19911;-70
2021/12/06 04:48:27;;;;;;;;;;;3.80;93.50;;;;;;5092667;28;19935;-70
2021/12/06 04:50:53;;;;;;;;;;;3.80;93.50;;;;;;5094567;28;20650;-70
2021/12/06 04:53:22;;;;;;;;;;;3.80;93.40;;;;;;5091794;28;19927;-70
2021/12/06 04:55:54;;;;;;;;;;;3.80;93.40;;;;;;5086568;28;19912;-70
2021/12/06 04:58:24;;;;;;;;;;;3.80;93.40;;;;;;5084167;28;19908;-70
2021/12/06 05:00:57;;;;;;;;;;;3.80;93.40;;;;;;5091183;28;19912;-70
2021/12/06 05:03:23;;;;;;;;;;;3.80;93.50;;;;;;5097860;28;19912;-70
2021/12/06 05:05:52;;;;;;;;;;;3.80;93.50;;;;;;5082430;28;19957;-70
2021/12/06 05:08:22;;;;;;;;;;;3.80;93.50;;;;;;5104533;28;19918;-70
2021/12/06 05:10:48;;;;;;;;;;;3.80;93.50;;;;;;5090761;28;21211;-70
2021/12/06 05:13:15;;;;;;;;;;;3.80;93.60;;;;;;5090275;28;19996;-70
2021/12/06 05:15:41;;;;;;;;;;;3.80;93.60;;;;;;5093532;28;20744;-70
2021/12/06 05:18:06;;;;;;;;;;;3.80;93.60;;;;;;5094191;28;19915;-70
2021/12/06 05:20:32;;;;;;;;;;;3.80;93.60;;;;;;5094878;28;19916;-70
2021/12/06 05:22:58;;;;;;;;;;;3.90;93.60;;;;;;5094362;28;19908;-70
2021/12/06 05:25:25;;;;;;;;;;;3.90;93.60;;;;;;5095608;28;19916;-70
2021/12/06 05:27:51;;;;;;;;;;;3.80;93.70;;;;;;5094124;28;19912;-70
2021/12/06 05:30:20;;;;;;;;;;;3.80;93.70;;;;;;5095674;28;20269;-70
2021/12/06 05:32:46;;;;;;;;;;;3.80;93.70;;;;;;5078210;28;20032;-70
2021/12/06 05:35:12;;;;;;;;;;;3.80;93.70;;;;;;5092392;28;19999;-71
2021/12/06 05:37:39;;;;;;;;;;;3.90;93.70;;;;;;5090303;28;19908;-70
2021/12/06 05:40:06;;;;;;;;;;;3.80;93.70;;;;;;5094726;28;19916;-70
2021/12/06 05:42:32;;;;;;;;;;;3.80;93.70;;;;;;5091456;28;19976;-70
2021/12/06 05:44:57;;;;;;;;;;;3.80;93.70;;;;;;5088059;28;20584;-70
2021/12/06 05:47:23;;;;;;;;;;;3.80;93.70;;;;;;5084096;28;20030;-70
2021/12/06 05:49:48;;;;;;;;;;;3.90;93.70;;;;;;5099377;28;19915;-70
2021/12/06 05:52:14;;;;;;;;;;;3.80;93.70;;;;;;5095214;28;19911;-70
2021/12/06 05:54:39;;;;;;;;;;;3.90;93.70;;;;;;5083651;28;19909;-70
2021/12/06 05:57:05;;;;;;;;;;;3.90;93.70;;;;;;5085196;28;20297;-70
2021/12/06 05:59:31;;;;;;;;;;;3.90;93.70;;;;;;5084940;28;19909;-70
2021/12/06 06:01:57;;;;;;;;;;;3.90;93.60;;;;;;5089265;28;19912;-70
2021/12/06 06:04:23;;;;;;;;;;;3.90;93.60;;;;;;5099780;28;19908;-70
2021/12/06 06:06:49;;;;;;;;;;;3.90;93.60;;;;;;5086842;28;19948;-70
2021/12/06 06:09:15;;;;;;;;;;;3.80;93.60;;;;;;5093490;28;19991;-70
2021/12/06 06:11:41;;;;;;;;;;;3.80;93.60;;;;;;5092741;28;20408;-70
2021/12/06 06:14:07;;;;;;;;;;;3.80;93.60;;;;;;5079329;28;20001;-70
2021/12/06 06:16:36;;;;;;;;;;;3.80;93.50;;;;;;5090363;28;20349;-70
2021/12/06 06:19:02;;;;;;;;;;;3.80;93.60;;;;;;5089748;28;19908;-70
2021/12/06 06:21:28;;;;;;;;;;;3.80;93.50;;;;;;5093003;28;19916;-70
2021/12/06 06:23:53;;;;;;;;;;;3.80;93.50;;;;;;5090636;28;19958;-70
2021/12/06 06:26:19;;;;;;;;;;;3.80;93.40;;;;;;5094919;28;20003;-70
2021/12/06 06:28:44;;;;;;;;;;;3.70;93.40;;;;;;5086960;28;19927;-70
2021/12/06 06:31:10;;;;;;;;;;;3.80;93.40;;;;;;5092945;28;20015;-70
2021/12/06 06:33:35;;;;;;;;;;;3.70;93.30;;;;;;5090351;28;19994;-70
2021/12/06 06:36:01;;;;;;;;;;;3.70;93.30;;;;;;5095911;28;20030;-70
2021/12/06 06:38:26;;;;;;;;;;;3.70;93.30;;;;;;5090269;28;20014;-70
2021/12/06 06:40:52;;;;;;;;;;;3.70;93.30;;;;;;5086673;28;20280;-70
2021/12/06 06:43:18;;;;;;;;;;;3.70;93.30;;;;;;5089354;28;19919;-70
2021/12/06 06:45:44;;;;;;;;;;;3.60;93.30;;;;;;5106594;27;19923;-70
2021/12/06 06:48:09;;;;;;;;;;;3.60;93.30;;;;;;5091609;28;19915;-70
2021/12/06 06:50:35;;;;;;;;;;;3.70;93.30;;;;;;5089928;28;20342;-70
2021/12/06 06:53:01;;;;;;;;;;;3.60;93.20;;;;;;5092597;28;20531;-70
2021/12/06 06:55:27;;;;;;;;;;;3.60;93.20;;;;;;5086864;28;19936;-70
2021/12/06 06:57:52;;;;;;;;;;;3.60;93.20;;;;;;5086858;28;19920;-70
2021/12/06 07:00:26;;;;;;;;;;;3.60;93.20;;;;;;5091942;28;19908;-70
2021/12/06 07:02:52;;;;;;;;;;;3.60;93.10;;;;;;5091608;28;19918;-70
2021/12/06 07:05:18;;;;;;;;;;;3.60;93.10;;;;;;5083594;28;19912;-70
2021/12/06 07:07:44;;;;;;;;;;;3.60;93.10;;;;;;5087561;28;20026;-70
2021/12/06 07:10:10;;;;;;;;;;;3.60;93.10;;;;;;5097270;28;20006;-70
2021/12/06 07:12:43;;;;;;;;;;;3.50;93.00;;;;;;5090546;28;19916;-70
2021/12/06 07:15:11;;;;;;;;;;;3.50;93.10;;;;;;5092790;28;19954;-70
2021/12/06 07:17:38;;;;;;;;;;;3.50;93.00;;;;;;5091709;28;19920;-70
2021/12/06 07:20:03;;;;;;;;;;;3.50;93.00;;;;;;5079594;28;20635;-71
2021/12/06 07:22:29;;;;;;;;;;;3.50;93.00;;;;;;5092257;28;19955;-70
2021/12/06 07:24:54;;;;;;;;;;;3.50;93.00;;;;;;5107867;28;19933;-70
2021/12/06 07:27:20;;;;;;;;;;;3.50;93.00;;;;;;5091207;28;19923;-70
2021/12/06 07:29:45;;;;;;;;;;;3.50;93.00;;;;;;5089269;28;19908;-70
2021/12/06 07:32:11;;;;;;;;;;;3.50;93.00;;;;;;5091396;28;19965;-70
2021/12/06 07:34:36;;;;;;;;;;;3.50;93.00;;;;;;5084105;28;20464;-70
2021/12/06 07:37:02;;;;;;;;;;;3.40;93.10;;;;;;5092070;28;19916;-70
2021/12/06 07:39:28;;;;;;;;;;;3.40;93.20;;;;;;5092278;28;20336;-70
2021/12/06 07:41:54;;;;;;;;;;;3.40;93.20;;;;;;5090712;28;19912;-70
2021/12/06 07:44:19;;;;;;;;;;;3.40;93.20;;;;;;5086933;28;20325;-70
2021/12/06 07:46:46;;;;;;;;;;;3.50;93.30;;;;;;5091993;28;19909;-70
2021/12/06 07:49:12;;;;;;;;;;;3.50;93.20;;;;;;5086570;28;19921;-70
2021/12/06 07:51:37;;;;;;;;;;;3.50;93.30;;;;;;5093238;28;20384;-71
2021/12/06 07:54:03;;;;;;;;;;;3.50;93.30;;;;;;5093729;28;19930;-70
2021/12/06 07:56:28;;;;;;;;;;;3.50;93.30;;;;;;5091882;28;19919;-70
2021/12/06 07:58:54;;;;;;;;;;;3.50;93.30;;;;;;5090114;28;19912;-70
2021/12/06 08:01:20;;;;;;;;;;;3.50;93.30;;;;;;5093811;28;19918;-70
2021/12/06 08:03:45;;;;;;;;;;;3.50;93.30;;;;;;5086111;28;19911;-71
2021/12/06 08:06:11;;;;;;;;;;;3.50;93.40;;;;;;5099220;28;19991;-70
2021/12/06 08:08:38;;;;;;;;;;;3.50;93.30;;;;;;5093379;28;20006;-70
2021/12/06 08:11:06;;;;;;;;;;;3.50;93.40;;;;;;5088785;28;19908;-70
2021/12/06 08:13:33;;;;;;;;;;;3.50;93.40;;;;;;5091401;28;19927;-70
2021/12/06 08:16:01;;;;;;;;;;;3.60;93.30;;;;;;5078210;28;20596;-70
2021/12/06 08:18:27;;;;;;;;;;;3.50;93.30;;;;;;5084946;28;19927;-70
2021/12/06 08:20:53;;;;;;;;;;;3.60;93.30;;;;;;5105754;28;19907;-70
2021/12/06 08:23:18;;;;;;;;;;;3.60;93.30;;;;;;5095411;28;20399;-70
2021/12/06 08:25:46;;;;;;;;;;;3.60;93.30;;;;;;5082128;28;19999;-71
2021/12/06 08:28:11;;;;;;;;;;;3.60;93.40;;;;;;5086655;28;19920;-70
2021/12/06 08:30:37;;;;;;;;;;;3.60;93.40;;;;;;5082354;28;19912;-70
2021/12/06 08:33:04;;;;;;;;;;;3.60;93.40;;;;;;5092430;28;19957;-70
2021/12/06 08:35:30;;;;;;;;;;;3.60;93.40;;;;;;5088169;28;19919;-70
2021/12/06 08:37:56;;;;;;;;;;;3.60;93.30;;;;;;5088700;28;19987;-70
2021/12/06 08:40:22;;;;;;;;;;;3.60;93.30;;;;;;5091771;28;20269;-71
2021/12/06 08:42:48;;;;;;;;;;;3.60;93.40;;;;;;5093696;28;19908;-70
2021/12/06 08:45:14;;;;;;;;;;;3.70;93.40;;;;;;5101457;28;20250;-70
2021/12/06 08:47:40;;;;;;;;;;;3.60;93.40;;;;;;5090079;28;19931;-70
2021/12/06 08:50:07;;;;;;;;;;;3.70;93.70;;;;;;5090673;28;20265;-70
2021/12/06 08:52:33;;;;;;;;;;;3.60;93.40;;;;;;5095684;28;19941;-71
2021/12/06 08:54:59;;;;;;;;;;;3.60;93.50;;;;;;5089946;28;20343;-70
2021/12/06 08:57:25;;;;;;;;;;;3.60;93.50;;;;;;5092289;28;19916;-70
2021/12/06 08:59:52;;;;;;;;;;;3.60;93.60;;;;;;5093195;28;20536;-70
2021/12/06 09:02:17;;;;;;;;;;;3.60;94.00;;;;;;5094704;28;19912;-70
2021/12/06 09:04:44;;;;;;;;;;;3.50;93.80;;;;;;5091575;28;20403;-70
2021/12/06 09:07:12;;;;;;;;;;;3.60;93.90;;;;;;5096979;27;19942;-71
2021/12/06 09:09:46;;;;;;;;;;;3.50;93.90;;;;;;5092954;28;20304;-71
2021/12/06 09:12:19;;;;;;;;;;;3.60;93.90;;;;;;5093810;28;19942;-70
2021/12/06 09:14:46;;;;;;;;;;;3.60;94.20;;;;;;5091322;28;19908;-71
2021/12/06 09:17:12;;;;;;;;;;;3.60;93.90;;;;;;5098141;28;19934;-71
2021/12/06 09:19:38;;;;;;;;;;;3.60;93.90;;;;;;5092909;28;19920;-70
2021/12/06 09:22:03;;;;;;;;;;;3.60;93.90;;;;;;5103703;28;19920;-71
2021/12/06 09:24:29;;;;;;;;;;;3.60;93.90;;;;;;5089337;28;19908;-70
2021/12/06 09:26:55;;;;;;;;;;;3.60;93.90;;;;;;5102432;28;19978;-70
2021/12/06 09:29:24;;;;;;;;;;;3.60;93.90;;;;;;5092362;28;21012;-70
2021/12/06 09:31:51;;;;;;;;;;;3.70;93.90;;;;;;5092129;28;19912;-70
2021/12/06 09:34:16;;;;;;;;;;;3.70;93.90;;;;;;5124121;27;19924;-70
2021/12/06 09:36:42;;;;;;;;;;;3.70;93.90;;;;;;5085485;28;20288;-71
2021/12/06 09:39:07;;;;;;;;;;;3.70;93.90;;;;;;5095087;28;19913;-70
2021/12/06 09:41:33;;;;;;;;;;;3.70;93.90;;;;;;5077543;28;19912;-70
2021/12/06 09:43:59;;;;;;;;;;;3.80;93.90;;;;;;5094079;28;20368;-70
2021/12/06 09:46:25;;;;;;;;;;;3.80;93.90;;;;;;5104925;28;19920;-70
2021/12/06 09:48:51;;;;;;;;;;;3.80;93.80;;;;;;5092830;28;19912;-71
2021/12/06 09:51:21;;;;;;;;;;;3.80;93.90;;;;;;5077980;28;20321;-70
2021/12/06 09:53:47;;;;;;;;;;;3.80;93.90;;;;;;5088492;28;19908;-71
2021/12/06 09:56:27;;;;;;;;;;;3.80;93.80;;;;;;5083127;28;19919;-70
2021/12/06 09:58:53;;;;;;;;;;;3.90;93.90;;;;;;5095888;28;20307;-71
2021/12/06 10:01:22;;;;;;;;;;;3.90;93.80;;;;;;5098034;28;20377;-70
2021/12/06 10:03:49;;;;;;;;;;;3.90;93.80;;;;;;5095454;28;19916;-70
2021/12/06 10:06:15;;;;;;;;;;;3.90;93.80;;;;;;5096626;28;20801;-70
2021/12/06 10:08:44;;;;;;;;;;;3.90;93.80;;;;;;5084905;28;19912;-70
2021/12/06 10:11:11;;;;;;;;;;;3.90;93.80;;;;;;5088225;28;19916;-71
2021/12/06 10:13:38;;;;;;;;;;;3.90;93.80;;;;;;5101389;28;19947;-71
2021/12/06 10:16:04;;;;;;;;;;;3.90;93.80;;;;;;5093002;28;20528;-71
2021/12/06 10:18:29;;;;;;;;;;;4.00;93.80;;;;;;5095399;28;20007;-71
2021/12/06 10:20:57;;;;;;;;;;;4.00;93.80;;;;;;5091381;28;19959;-71
2021/12/06 10:23:22;;;;;;;;;;;4.00;93.80;;;;;;5077496;28;19913;-71
2021/12/06 10:25:49;;;;;;;;;;;4.00;93.70;;;;;;5102962;27;19920;-71
2021/12/06 10:28:16;;;;;;;;;;;4.10;93.80;;;;;;5106963;28;19916;-70
2021/12/06 10:30:49;;;;;;;;;;;4.10;93.80;;;;;;5092533;28;19969;-71
2021/12/06 10:33:20;;;;;;;;;;;4.10;93.80;;;;;;5091767;28;19913;-71
2021/12/06 10:35:48;;;;;;;;;;;4.10;93.80;;;;;;5092584;27;19908;-71
2021/12/06 10:38:21;;;;;;;;;;;4.10;93.70;;;;;;5082244;28;19943;-71
2021/12/06 10:40:47;;;;;;;;;;;4.10;93.80;;;;;;5095985;28;20008;-71
2021/12/06 10:43:12;;;;;;;;;;;4.10;93.80;;;;;;5103584;28;20677;-71
2021/12/06 10:45:42;;;;;;;;;;;4.10;93.70;;;;;;5091479;28;19912;-71
2021/12/06 10:48:13;;;;;;;;;;;4.10;93.70;;;;;;5082035;28;19923;-71
2021/12/06 10:50:44;;;;;;;;;;;4.20;93.70;;;;;;5091599;28;19908;-71
2021/12/06 10:53:11;;;;;;;;;;;4.20;93.70;;;;;;5093092;28;19912;-71
2021/12/06 10:55:39;;;;;;;;;;;4.20;93.80;;;;;;5088592;28;20360;-71
2021/12/06 10:58:07;;;;;;;;;;;4.20;93.80;;;;;;5089062;28;19916;-71
2021/12/06 11:00:32;;;;;;;;;;;4.20;93.80;;;;;;5082109;28;20781;-71
2021/12/06 11:02:58;;;;;;;;;;;4.20;93.80;;;;;;5087018;28;19927;-71
2021/12/06 11:05:24;;;;;;;;;;;4.20;93.80;;;;;;5091147;28;19912;-71
2021/12/06 11:08:09;;;;;;;;;;;4.20;93.80;;;;;;5092438;28;19950;-71
2021/12/06 11:10:39;;;;;;;;;;;4.20;93.80;;;;;;5091408;28;19962;-71
2021/12/06 11:13:23;;;;;;;;;;;4.20;93.80;;;;;;5094082;28;19951;-71
2021/12/06 11:15:55;;;;;;;;;;;4.30;93.80;;;;;;5086197;28;19912;-70
2021/12/06 11:18:32;;;;;;;;;;;4.30;93.80;;;;;;5092373;28;19912;-71
2021/12/06 11:20:58;;;;;;;;;;;4.30;93.70;;;;;;5082052;28;20410;-71
2021/12/06 11:23:23;;;;;;;;;;;4.30;93.70;;;;;;5085721;28;19934;-71
2021/12/06 11:26:01;;;;;;;;;;;4.30;93.70;;;;;;5085809;28;19912;-70
2021/12/06 11:28:29;;;;;;;;;;;4.40;93.80;;;;;;5083631;28;20408;-71
2021/12/06 11:31:05;;;;;;;;;;;4.40;93.80;;;;;;5087741;28;19929;-70
2021/12/06 11:33:33;;;;;;;;;;;4.40;93.80;;;;;;5090256;28;19912;-71
2021/12/06 11:35:59;;;;;;;;;;;4.40;93.70;;;;;;5092345;28;19911;-71
2021/12/06 11:38:27;;;;;;;;;;;4.40;93.80;;;;;;5104548;28;19914;-71
2021/12/06 11:40:55;;;;;;;;;;;4.40;93.80;;;;;;5090785;28;19920;-71
2021/12/06 11:43:21;;;;;;;;;;;4.40;93.80;;;;;;5072795;28;19916;-71
2021/12/06 11:46:07;;;;;;;;;;;4.40;93.80;;;;;;5091138;28;19926;-71
2021/12/06 11:48:35;;;;;;;;;;;4.40;93.80;;;;;;5081852;28;20387;-71
2021/12/06 11:51:08;;;;;;;;;;;4.50;93.80;;;;;;5092034;28;19922;-71
2021/12/06 11:53:39;;;;;;;;;;;4.50;93.80;;;;;;5103129;28;20081;-71
2021/12/06 11:56:15;;;;;;;;;;;4.50;93.80;;;;;;5089874;28;19995;-71
2021/12/06 11:59:01;;;;;;;;;;;4.60;93.70;;;;;;5091280;28;19920;-71
2021/12/06 12:01:28;;;;;;;;;;;4.60;93.60;;;;;;5103187;28;19915;-71
2021/12/06 12:03:56;;;;;;;;;;;4.70;93.60;;;;;;5095474;28;19950;-71
2021/12/06 12:06:30;;;;;;;;;;;4.70;93.60;;;;;;5100604;28;19911;-71
2021/12/06 12:09:14;;;;;;;;;;;4.70;93.50;;;;;;5088891;28;20338;-71
2021/12/06 12:11:52;;;;;;;;;;;4.80;93.60;;;;;;5091879;28;19941;-71
2021/12/06 12:14:23;;;;;;;;;;;4.80;93.60;;;;;;5091667;28;19908;-71
2021/12/06 12:16:49;;;;;;;;;;;4.80;93.60;;;;;;5073518;28;23627;-71
2021/12/06 12:19:14;;;;;;;;;;;4.80;93.70;;;;;;5105087;27;19912;-71
2021/12/06 12:21:40;;;;;;;;;;;4.80;93.70;;;;;;5097001;28;19980;-71
2021/12/06 12:24:05;;;;;;;;;;;4.80;93.70;;;;;;5089684;28;19919;-71
2021/12/06 12:26:31;;;;;;;;;;;4.80;93.80;;;;;;5103189;28;20448;-71
2021/12/06 12:29:11;;;;;;;;;;;4.80;93.80;;;;;;5090806;28;19920;-71
2021/12/06 12:31:37;;;;;;;;;;;4.80;93.80;;;;;;5092863;28;19927;-71
2021/12/06 12:34:03;;;;;;;;;;;4.80;93.90;;;;;;5093199;28;20276;-70
2021/12/06 12:36:28;;;;;;;;;;;4.80;93.90;;;;;;5087690;28;19947;-71
2021/12/06 12:38:56;;;;;;;;;;;4.80;93.90;;;;;;5092269;28;19919;-71
2021/12/06 12:41:23;;;;;;;;;;;4.80;93.90;;;;;;5091806;28;19920;-70
2021/12/06 12:43:50;;;;;;;;;;;4.90;93.90;;;;;;5080797;28;19921;-71
2021/12/06 12:46:20;;;;;;;;;;;4.80;93.90;;;;;;5087404;28;19912;-70
2021/12/06 12:48:55;;;;;;;;;;;4.90;93.90;;;;;;5075809;28;19919;-71
2021/12/06 12:51:23;;;;;;;;;;;4.90;93.90;;;;;;5085281;28;20023;-71
2021/12/06 12:53:54;;;;;;;;;;;4.90;93.90;;;;;;5083296;28;19915;-71
2021/12/06 12:56:21;;;;;;;;;;;4.90;93.90;;;;;;5088801;28;20007;-70
2021/12/06 12:58:47;;;;;;;;;;;4.90;93.90;;;;;;5079866;28;19908;-71
2021/12/06 13:01:13;;;;;;;;;;;5.00;93.90;;;;;;5089481;28;19915;-71
2021/12/06 13:03:59;;;;;;;;;;;5.00;93.90;;;;;;5080311;28;19981;-71
2021/12/06 13:06:34;;;;;;;;;;;5.00;94.00;;;;;;5088275;28;20376;-71
2021/12/06 13:09:07;;;;;;;;;;;5.00;93.90;;;;;;5089272;28;19920;-71
2021/12/06 13:11:36;;;;;;;;;;;5.00;93.90;;;;;;5090114;28;19952;-71
2021/12/06 13:14:03;;;;;;;;;;;5.00;93.90;;;;;;5089149;28;19963;-71
2021/12/06 13:19:37;;;;;;;;;;;5.00;93.90;;;;;;5082932;28;20562;-71
2021/12/06 13:22:14;;;;;;;;;;;5.00;93.90;;;;;;5087299;28;19912;-71
2021/12/06 13:24:49;;;;;;;;;;;5.00;93.90;;;;;;5087531;28;20007;-71
2021/12/06 13:27:17;;;;;;;;;;;5.00;93.90;;;;;;5081493;28;20510;-71
2021/12/06 13:29:47;;;;;;;;;;;5.00;93.90;;;;;;5100277;28;19912;-71
2021/12/06 13:32:31;;;;;;;;;;;5.00;94.00;;;;;;5090614;28;19981;-70
2021/12/06 13:35:14;;;;;;;;;;;5.00;94.30;;;;;;5097212;28;19908;-70
2021/12/06 13:37:40;;;;;;;;;;;5.00;94.00;;;;;;5088793;28;19920;-70
2021/12/06 13:40:16;;;;;;;;;;;5.00;94.10;;;;;;5092306;28;19918;-70
2021/12/06 13:42:43;;;;;;;;;;;5.00;94.10;;;;;;5089349;28;20399;-70
2021/12/06 13:45:26;;;;;;;;;;;5.00;94.10;;;;;;5087029;28;19953;-70
2021/12/06 13:48:09;;;;;;;;;;;5.00;94.10;;;;;;5092335;28;19974;-70
2021/12/06 13:50:35;;;;;;;;;;;4.90;94.10;;;;;;5107118;28;20007;-70
2021/12/06 13:53:00;;;;;;;;;;;4.90;94.20;;;;;;5096119;28;19987;-70
2021/12/06 13:55:28;;;;;;;;;;;4.90;94.20;;;;;;5095076;28;19913;-70
2021/12/06 13:57:58;;;;;;;;;;;4.90;94.20;;;;;;5090260;28;19999;-71
2021/12/06 14:00:27;;;;;;;;;;;4.90;94.20;;;;;;5100490;28;19931;-70
2021/12/06 14:03:02;;;;;;;;;;;4.90;94.20;;;;;;5105800;27;20303;-70
2021/12/06 14:05:29;;;;;;;;;;;4.90;94.20;;;;;;5098335;28;19920;-70
2021/12/06 14:07:54;;;;;;;;;;;4.90;94.20;;;;;;5095181;28;20483;-70
2021/12/06 14:10:20;;;;;;;;;;;4.90;94.30;;;;;;5091506;28;19916;-70
2021/12/06 14:12:46;;;;;;;;;;;4.80;94.20;;;;;;5091436;28;20003;-70
2021/12/06 14:15:18;;;;;;;;;;;4.80;94.30;;;;;;5093197;28;20015;-71
2021/12/06 14:17:44;;;;;;;;;;;4.80;94.30;;;;;;5094574;28;19919;-70
2021/12/06 14:20:11;;;;;;;;;;;4.80;94.30;;;;;;5092265;28;19912;-70
2021/12/06 14:22:37;;;;;;;;;;;4.80;94.30;;;;;;5083726;28;19916;-70
2021/12/06 14:25:03;;;;;;;;;;;4.70;94.30;;;;;;5088644;28;19915;-70
2021/12/06 14:27:30;;;;;;;;;;;4.70;94.30;;;;;;5106432;28;19912;-70
2021/12/06 14:29:56;;;;;;;;;;;4.70;94.30;;;;;;5092075;28;19947;-70
2021/12/06 14:32:22;;;;;;;;;;;4.70;94.30;;;;;;5092853;28;19951;-70
2021/12/06 14:34:47;;;;;;;;;;;4.70;94.30;;;;;;5090727;28;19999;-70
2021/12/06 14:37:15;;;;;;;;;;;4.70;94.30;;;;;;5088318;28;20022;-70
2021/12/06 14:39:43;;;;;;;;;;;4.70;94.40;;;;;;5090227;28;20011;-70
2021/12/06 14:42:13;;;;;;;;;;;4.60;94.30;;;;;;5090323;28;19909;-70
2021/12/06 14:44:52;;;;;;;;;;;4.60;94.30;;;;;;5089899;28;19920;-70
2021/12/06 14:47:23;;;;;;;;;;;4.60;94.40;;;;;;5093184;28;19915;-70
2021/12/06 14:49:49;;;;;;;;;;;4.60;94.40;;;;;;5096719;28;19983;-70
2021/12/06 14:52:21;;;;;;;;;;;4.60;94.40;;;;;;5104643;28;19999;-70
2021/12/06 14:55:18;;;;;;;;;;;4.50;94.40;;;;;;5091217;28;19908;-70